sensor_id;sensor_type;location;lat;lon;timestamp;temperature;humidity
29775;DHT22;16676;51.202;6.774;2023-04-03T00:03:37;18.00;76.10
29775;DHT22;16676;51.202;6.774;2023-04-03T00:07:39;17.90;76.20
29775;DHT22;16676;51.202;6.774;2023-04-03T00:11:43;17.90;76.10
29775;DHT22;16676;51.202;6.774;2023-04-03T00:15:44;17.90;75.90
29775;DHT22;16676;51.202;6.774;2023-04-03T00:19:46;17.90;76.00
29775;DHT22;16676;51.202;6.774;2023-04-03T00:23:48;17.90;76.20
29775;DHT22;16676;51.202;6.774;2023-04-03T00:27:52;17.90;76.10
29775;DHT22;16676;51.202;6.774;2023-04-03T00:31:54;17.90;76.10
29775;DHT22;16676;51.202;6.774;2023-04-03T00:35:56;17.90;76.30
29775;DHT22;16676;51.202;6.774;2023-04-03T00:39:58;17.80;76.10
29775;DHT22;16676;51.202;6.774;2023-04-03T00:48:18;17.80;76.40
29775;DHT22;16676;51.202;6.774;2023-04-03T00:52:23;17.80;76.50
29775;DHT22;16676;51.202;6.774;2023-04-03T00:56:28;17.80;76.70
29775;DHT22;16676;51.202;6.774;2023-04-03T01:00:33;17.80;76.70
29775;DHT22;16676;51.202;6.774;2023-04-03T01:04:37;17.70;76.70
29775;DHT22;16676;51.202;6.774;2023-04-03T01:13:55;17.70;76.60
29775;DHT22;16676;51.202;6.774;2023-04-03T01:18:18;17.70;76.80
29775;DHT22;16676;51.202;6.774;2023-04-03T01:22:45;17.70;76.90
29775;DHT22;16676;51.202;6.774;2023-04-03T01:27:12;17.60;76.90
29775;DHT22;16676;51.202;6.774;2023-04-03T01:31:18;17.60;76.90
29775;DHT22;16676;51.202;6.774;2023-04-03T01:35:23;17.60;76.80
29775;DHT22;16676;51.202;6.774;2023-04-03T01:39:25;17.60;76.80
29775;DHT22;16676;51.202;6.774;2023-04-03T01:43:27;17.60;76.90
29775;DHT22;16676;51.202;6.774;2023-04-03T01:47:29;17.60;76.90
29775;DHT22;16676;51.202;6.774;2023-04-03T01:51:33;17.60;76.80
29775;DHT22;16676;51.202;6.774;2023-04-03T01:55:35;17.60;77.00
29775;DHT22;16676;51.202;6.774;2023-04-03T01:59:37;17.60;76.80
29775;DHT22;16676;51.202;6.774;2023-04-03T02:03:38;17.60;76.80
29775;DHT22;16676;51.202;6.774;2023-04-03T02:07:42;17.50;76.90
29775;DHT22;16676;51.202;6.774;2023-04-03T02:11:44;17.50;76.90
29775;DHT22;16676;51.202;6.774;2023-04-03T02:15:46;17.50;76.90
29775;DHT22;16676;51.202;6.774;2023-04-03T02:19:48;17.50;77.00
29775;DHT22;16676;51.202;6.774;2023-04-03T02:23:51;17.50;77.10
29775;DHT22;16676;51.202;6.774;2023-04-03T02:27:53;17.50;77.10
29775;DHT22;16676;51.202;6.774;2023-04-03T02:31:55;17.50;76.90
29775;DHT22;16676;51.202;6.774;2023-04-03T02:35:58;17.50;77.10
29775;DHT22;16676;51.202;6.774;2023-04-03T02:40:01;17.50;77.10
29775;DHT22;16676;51.202;6.774;2023-04-03T02:44:05;17.50;77.20
29775;DHT22;16676;51.202;6.774;2023-04-03T02:48:07;17.40;77.10
29775;DHT22;16676;51.202;6.774;2023-04-03T02:52:09;17.40;77.10
29775;DHT22;16676;51.202;6.774;2023-04-03T02:56:12;17.40;76.90
29775;DHT22;16676;51.202;6.774;2023-04-03T03:00:15;17.40;77.00
29775;DHT22;16676;51.202;6.774;2023-04-03T03:04:17;17.40;76.90
29775;DHT22;16676;51.202;6.774;2023-04-03T03:08:19;17.40;77.00
29775;DHT22;16676;51.202;6.774;2023-04-03T03:12:22;17.40;77.10
29775;DHT22;16676;51.202;6.774;2023-04-03T03:16:25;17.40;77.00
29775;DHT22;16676;51.202;6.774;2023-04-03T03:20:27;17.30;77.10
29775;DHT22;16676;51.202;6.774;2023-04-03T03:24:29;17.40;77.10
29775;DHT22;16676;51.202;6.774;2023-04-03T03:28:32;17.30;77.00
29775;DHT22;16676;51.202;6.774;2023-04-03T03:32:34;17.30;77.00
29775;DHT22;16676;51.202;6.774;2023-04-03T03:36:36;17.30;77.00
29775;DHT22;16676;51.202;6.774;2023-04-03T03:40:38;17.30;77.10
29775;DHT22;16676;51.202;6.774;2023-04-03T03:44:41;17.30;77.00
29775;DHT22;16676;51.202;6.774;2023-04-03T03:48:43;17.30;77.00
29775;DHT22;16676;51.202;6.774;2023-04-03T03:52:45;17.30;77.00
29775;DHT22;16676;51.202;6.774;2023-04-03T03:56:47;17.30;77.00
29775;DHT22;16676;51.202;6.774;2023-04-03T04:00:50;17.30;77.00
29775;DHT22;16676;51.202;6.774;2023-04-03T04:04:53;17.30;76.90
29775;DHT22;16676;51.202;6.774;2023-04-03T04:08:54;17.20;77.00
29775;DHT22;16676;51.202;6.774;2023-04-03T04:12:56;17.20;77.00
29775;DHT22;16676;51.202;6.774;2023-04-03T04:17:00;17.20;77.00
29775;DHT22;16676;51.202;6.774;2023-04-03T04:21:02;17.20;77.00
29775;DHT22;16676;51.202;6.774;2023-04-03T04:25:05;17.20;77.00
29775;DHT22;16676;51.202;6.774;2023-04-03T04:29:08;17.20;76.90
29775;DHT22;16676;51.202;6.774;2023-04-03T04:33:12;17.20;77.00
29775;DHT22;16676;51.202;6.774;2023-04-03T04:37:14;17.20;76.80
29775;DHT22;16676;51.202;6.774;2023-04-03T04:41:16;17.20;76.80
29775;DHT22;16676;51.202;6.774;2023-04-03T04:45:19;17.20;76.80
29775;DHT22;16676;51.202;6.774;2023-04-03T04:49:22;17.20;77.00
29775;DHT22;16676;51.202;6.774;2023-04-03T04:53:24;17.20;77.00
29775;DHT22;16676;51.202;6.774;2023-04-03T04:57:26;17.10;77.10
29775;DHT22;16676;51.202;6.774;2023-04-03T05:01:28;17.10;77.10
29775;DHT22;16676;51.202;6.774;2023-04-03T05:05:32;17.20;77.40
29775;DHT22;16676;51.202;6.774;2023-04-03T05:09:34;17.30;76.90
29775;DHT22;16676;51.202;6.774;2023-04-03T05:13:36;17.30;76.70
29775;DHT22;16676;51.202;6.774;2023-04-03T05:17:38;17.40;76.80
29775;DHT22;16676;51.202;6.774;2023-04-03T05:21:41;17.40;76.40
29775;DHT22;16676;51.202;6.774;2023-04-03T05:25:43;17.40;76.70
29775;DHT22;16676;51.202;6.774;2023-04-03T05:29:45;17.40;76.80
29775;DHT22;16676;51.202;6.774;2023-04-03T05:33:48;17.10;68.00
29775;DHT22;16676;51.202;6.774;2023-04-03T05:37:51;16.50;59.60
29775;DHT22;16676;51.202;6.774;2023-04-03T05:41:53;16.00;60.60
29775;DHT22;16676;51.202;6.774;2023-04-03T05:45:55;16.20;66.80
29775;DHT22;16676;51.202;6.774;2023-04-03T05:49:57;16.50;67.20
29775;DHT22;16676;51.202;6.774;2023-04-03T05:54:06;16.70;67.90
29775;DHT22;16676;51.202;6.774;2023-04-03T05:58:08;16.80;67.40
29775;DHT22;16676;51.202;6.774;2023-04-03T06:02:11;17.00;66.90
29775;DHT22;16676;51.202;6.774;2023-04-03T06:06:14;17.10;67.20
29775;DHT22;16676;51.202;6.774;2023-04-03T06:10:17;17.10;67.30
29775;DHT22;16676;51.202;6.774;2023-04-03T06:14:20;17.20;67.60
29775;DHT22;16676;51.202;6.774;2023-04-03T06:18:23;17.30;67.90
29775;DHT22;16676;51.202;6.774;2023-04-03T06:22:25;17.30;68.10
29775;DHT22;16676;51.202;6.774;2023-04-03T06:26:31;17.30;68.30
29775;DHT22;16676;51.202;6.774;2023-04-03T06:30:33;17.30;68.50
29775;DHT22;16676;51.202;6.774;2023-04-03T06:34:35;17.40;68.60
29775;DHT22;16676;51.202;6.774;2023-04-03T06:38:37;17.40;68.80
29775;DHT22;16676;51.202;6.774;2023-04-03T06:42:41;17.40;68.80
29775;DHT22;16676;51.202;6.774;2023-04-03T06:46:44;17.40;69.00
29775;DHT22;16676;51.202;6.774;2023-04-03T06:50:47;17.40;69.10
29775;DHT22;16676;51.202;6.774;2023-04-03T06:54:49;17.40;69.20
29775;DHT22;16676;51.202;6.774;2023-04-03T06:58:54;17.40;69.30
29775;DHT22;16676;51.202;6.774;2023-04-03T07:02:57;17.40;69.40
29775;DHT22;16676;51.202;6.774;2023-04-03T07:06:59;17.50;69.60
29775;DHT22;16676;51.202;6.774;2023-04-03T07:11:02;17.50;69.50
29775;DHT22;16676;51.202;6.774;2023-04-03T07:15:06;17.50;69.30
29775;DHT22;16676;51.202;6.774;2023-04-03T07:19:09;17.60;69.00
29775;DHT22;16676;51.202;6.774;2023-04-03T07:23:11;18.20;66.90
29775;DHT22;16676;51.202;6.774;2023-04-03T07:27:13;19.40;61.80
29775;DHT22;16676;51.202;6.774;2023-04-03T07:31:17;20.40;58.20
29775;DHT22;16676;51.202;6.774;2023-04-03T07:35:19;21.10;55.70
29775;DHT22;16676;51.202;6.774;2023-04-03T07:39:21;21.70;54.40
29775;DHT22;16676;51.202;6.774;2023-04-03T07:43:23;22.10;53.20
29775;DHT22;16676;51.202;6.774;2023-04-03T07:47:26;22.30;52.40
29775;DHT22;16676;51.202;6.774;2023-04-03T07:51:28;22.70;51.60
29775;DHT22;16676;51.202;6.774;2023-04-03T07:55:32;22.80;51.40
29775;DHT22;16676;51.202;6.774;2023-04-03T07:59:34;23.20;50.80
29775;DHT22;16676;51.202;6.774;2023-04-03T08:03:38;23.50;50.00
29775;DHT22;16676;51.202;6.774;2023-04-03T08:07:40;23.10;49.70
29775;DHT22;16676;51.202;6.774;2023-04-03T08:11:42;22.00;53.00
29775;DHT22;16676;51.202;6.774;2023-04-03T08:15:44;20.90;56.80
29775;DHT22;16676;51.202;6.774;2023-04-03T08:19:47;20.10;59.10
29775;DHT22;16676;51.202;6.774;2023-04-03T08:23:50;19.60;61.50
29775;DHT22;16676;51.202;6.774;2023-04-03T08:27:51;19.10;63.10
29775;DHT22;16676;51.202;6.774;2023-04-03T08:31:53;18.90;64.20
29775;DHT22;16676;51.202;6.774;2023-04-03T08:35:57;18.80;65.10
29775;DHT22;16676;51.202;6.774;2023-04-03T08:39:59;18.70;65.60
29775;DHT22;16676;51.202;6.774;2023-04-03T08:44:07;18.60;65.90
29775;DHT22;16676;51.202;6.774;2023-04-03T08:48:15;18.60;66.30
29775;DHT22;16676;51.202;6.774;2023-04-03T08:52:24;18.60;66.60
29775;DHT22;16676;51.202;6.774;2023-04-03T08:56:30;18.60;66.60
29775;DHT22;16676;51.202;6.774;2023-04-03T09:00:40;18.60;66.50
29775;DHT22;16676;51.202;6.774;2023-04-03T09:04:45;18.60;66.60
29775;DHT22;16676;51.202;6.774;2023-04-03T09:08:53;18.60;66.50
29775;DHT22;16676;51.202;6.774;2023-04-03T09:13:01;18.60;66.80
29775;DHT22;16676;51.202;6.774;2023-04-03T09:17:12;18.60;66.90
29775;DHT22;16676;51.202;6.774;2023-04-03T09:21:21;18.60;67.00
29775;DHT22;16676;51.202;6.774;2023-04-03T09:25:30;18.60;66.90
29775;DHT22;16676;51.202;6.774;2023-04-03T09:29:39;18.70;66.80
29775;DHT22;16676;51.202;6.774;2023-04-03T09:33:43;18.70;67.50
29775;DHT22;16676;51.202;6.774;2023-04-03T09:37:47;18.70;66.50
29775;DHT22;16676;51.202;6.774;2023-04-03T09:41:59;18.70;66.30
29775;DHT22;16676;51.202;6.774;2023-04-03T09:46:24;18.70;66.30
29775;DHT22;16676;51.202;6.774;2023-04-03T09:50:27;18.80;66.30
29775;DHT22;16676;51.202;6.774;2023-04-03T09:54:35;18.70;66.20
29775;DHT22;16676;51.202;6.774;2023-04-03T09:58:44;18.80;66.10
29775;DHT22;16676;51.202;6.774;2023-04-03T10:02:51;18.80;66.00
29775;DHT22;16676;51.202;6.774;2023-04-03T10:06:55;18.80;66.00
29775;DHT22;16676;51.202;6.774;2023-04-03T10:11:09;18.80;66.00
29775;DHT22;16676;51.202;6.774;2023-04-03T10:15:15;18.80;66.10
29775;DHT22;16676;51.202;6.774;2023-04-03T10:19:31;18.80;66.00
29775;DHT22;16676;51.202;6.774;2023-04-03T10:23:41;18.80;66.60
29775;DHT22;16676;51.202;6.774;2023-04-03T10:27:52;18.90;65.80
29775;DHT22;16676;51.202;6.774;2023-04-03T10:32:02;18.90;65.60
29775;DHT22;16676;51.202;6.774;2023-04-03T10:36:20;18.90;65.50
29775;DHT22;16676;51.202;6.774;2023-04-03T10:40:30;18.90;65.70
29775;DHT22;16676;51.202;6.774;2023-04-03T10:44:42;18.90;65.60
29775;DHT22;16676;51.202;6.774;2023-04-03T10:49:01;19.00;65.50
29775;DHT22;16676;51.202;6.774;2023-04-03T10:53:10;19.00;65.40
29775;DHT22;16676;51.202;6.774;2023-04-03T10:57:13;19.00;65.40
29775;DHT22;16676;51.202;6.774;2023-04-03T11:01:18;19.00;65.20
29775;DHT22;16676;51.202;6.774;2023-04-03T11:05:31;19.10;65.30
29775;DHT22;16676;51.202;6.774;2023-04-03T11:09:38;19.10;65.20
29775;DHT22;16676;51.202;6.774;2023-04-03T11:13:43;19.10;65.00
29775;DHT22;16676;51.202;6.774;2023-04-03T11:17:50;19.20;65.10
29775;DHT22;16676;51.202;6.774;2023-04-03T11:21:57;19.20;64.90
29775;DHT22;16676;51.202;6.774;2023-04-03T11:26:10;19.20;64.80
29775;DHT22;16676;51.202;6.774;2023-04-03T11:30:18;19.20;64.70
29775;DHT22;16676;51.202;6.774;2023-04-03T11:34:28;19.20;64.70
29775;DHT22;16676;51.202;6.774;2023-04-03T11:38:38;19.20;64.70
29775;DHT22;16676;51.202;6.774;2023-04-03T11:42:46;19.20;64.70
29775;DHT22;16676;51.202;6.774;2023-04-03T11:46:51;19.20;64.40
29775;DHT22;16676;51.202;6.774;2023-04-03T11:50:54;19.20;64.50
29775;DHT22;16676;51.202;6.774;2023-04-03T11:54:58;19.20;64.60
29775;DHT22;16676;51.202;6.774;2023-04-03T11:59:22;19.20;64.70
29775;DHT22;16676;51.202;6.774;2023-04-03T12:03:32;19.30;64.60
29775;DHT22;16676;51.202;6.774;2023-04-03T12:07:34;19.30;64.60
29775;DHT22;16676;51.202;6.774;2023-04-03T12:11:37;19.30;64.50
29775;DHT22;16676;51.202;6.774;2023-04-03T12:15:52;19.30;64.40
29775;DHT22;16676;51.202;6.774;2023-04-03T12:19:54;19.30;64.20
29775;DHT22;16676;51.202;6.774;2023-04-03T12:24:03;19.40;64.20
29775;DHT22;16676;51.202;6.774;2023-04-03T12:28:10;19.50;64.20
29775;DHT22;16676;51.202;6.774;2023-04-03T12:32:24;19.40;64.10
29775;DHT22;16676;51.202;6.774;2023-04-03T12:36:33;19.40;64.00
29775;DHT22;16676;51.202;6.774;2023-04-03T12:40:44;19.50;63.50
29775;DHT22;16676;51.202;6.774;2023-04-03T12:44:57;19.50;63.50
29775;DHT22;16676;51.202;6.774;2023-04-03T12:49:02;19.50;63.50
29775;DHT22;16676;51.202;6.774;2023-04-03T12:53:18;19.50;63.40
29775;DHT22;16676;51.202;6.774;2023-04-03T12:57:24;19.50;63.30
29775;DHT22;16676;51.202;6.774;2023-04-03T13:01:28;19.60;63.30
29775;DHT22;16676;51.202;6.774;2023-04-03T13:05:31;19.50;63.20
29775;DHT22;16676;51.202;6.774;2023-04-03T13:09:34;19.50;63.10
29775;DHT22;16676;51.202;6.774;2023-04-03T13:13:36;19.50;63.00
29775;DHT22;16676;51.202;6.774;2023-04-03T13:17:42;19.50;63.10
29775;DHT22;16676;51.202;6.774;2023-04-03T13:21:44;19.50;63.10
29775;DHT22;16676;51.202;6.774;2023-04-03T13:25:48;19.50;62.80
29775;DHT22;16676;51.202;6.774;2023-04-03T13:29:52;19.50;63.10
29775;DHT22;16676;51.202;6.774;2023-04-03T13:34:02;19.50;63.70
29775;DHT22;16676;51.202;6.774;2023-04-03T13:38:20;19.50;63.00
29775;DHT22;16676;51.202;6.774;2023-04-03T13:42:25;19.50;63.10
29775;DHT22;16676;51.202;6.774;2023-04-03T13:46:28;19.50;62.90
29775;DHT22;16676;51.202;6.774;2023-04-03T13:50:31;19.50;62.80
29775;DHT22;16676;51.202;6.774;2023-04-03T13:54:36;19.50;62.80
29775;DHT22;16676;51.202;6.774;2023-04-03T13:58:39;19.40;62.80
29775;DHT22;16676;51.202;6.774;2023-04-03T14:02:41;19.40;62.80
29775;DHT22;16676;51.202;6.774;2023-04-03T14:06:44;19.50;62.80
29775;DHT22;16676;51.202;6.774;2023-04-03T14:10:47;19.40;62.70
29775;DHT22;16676;51.202;6.774;2023-04-03T14:14:50;19.50;62.70
29775;DHT22;16676;51.202;6.774;2023-04-03T14:18:52;19.40;62.50
29775;DHT22;16676;51.202;6.774;2023-04-03T14:22:55;19.50;62.50
29775;DHT22;16676;51.202;6.774;2023-04-03T14:26:57;19.50;62.20
29775;DHT22;16676;51.202;6.774;2023-04-03T14:31:01;19.50;62.20
29775;DHT22;16676;51.202;6.774;2023-04-03T14:35:03;19.40;62.30
29775;DHT22;16676;51.202;6.774;2023-04-03T14:39:10;19.50;62.10
29775;DHT22;16676;51.202;6.774;2023-04-03T14:43:12;19.50;62.10
29775;DHT22;16676;51.202;6.774;2023-04-03T14:47:16;19.40;62.00
29775;DHT22;16676;51.202;6.774;2023-04-03T14:51:20;19.50;62.10
29775;DHT22;16676;51.202;6.774;2023-04-03T14:55:25;19.50;62.20
29775;DHT22;16676;51.202;6.774;2023-04-03T14:59:27;19.40;62.20
29775;DHT22;16676;51.202;6.774;2023-04-03T15:03:29;19.40;62.10
29775;DHT22;16676;51.202;6.774;2023-04-03T15:07:34;19.40;62.20
29775;DHT22;16676;51.202;6.774;2023-04-03T15:11:38;19.40;62.10
29775;DHT22;16676;51.202;6.774;2023-04-03T15:15:40;19.40;62.30
29775;DHT22;16676;51.202;6.774;2023-04-03T15:19:42;19.40;62.60
29775;DHT22;16676;51.202;6.774;2023-04-03T15:23:44;19.30;62.40
29775;DHT22;16676;51.202;6.774;2023-04-03T15:27:47;19.30;62.40
29775;DHT22;16676;51.202;6.774;2023-04-03T15:31:49;19.30;62.50
29775;DHT22;16676;51.202;6.774;2023-04-03T15:35:54;19.30;62.40
29775;DHT22;16676;51.202;6.774;2023-04-03T15:39:56;19.30;62.70
29775;DHT22;16676;51.202;6.774;2023-04-03T15:44:00;19.30;62.50
29775;DHT22;16676;51.202;6.774;2023-04-03T15:48:02;19.30;62.70
29775;DHT22;16676;51.202;6.774;2023-04-03T15:52:05;19.20;62.80
29775;DHT22;16676;51.202;6.774;2023-04-03T15:56:07;19.20;62.80
29775;DHT22;16676;51.202;6.774;2023-04-03T16:00:13;19.20;62.70
29775;DHT22;16676;51.202;6.774;2023-04-03T16:04:15;19.20;62.90
29775;DHT22;16676;51.202;6.774;2023-04-03T16:08:18;19.20;62.90
29775;DHT22;16676;51.202;6.774;2023-04-03T16:12:20;19.20;63.00
29775;DHT22;16676;51.202;6.774;2023-04-03T16:16:24;19.20;62.80
29775;DHT22;16676;51.202;6.774;2023-04-03T16:20:26;19.10;63.10
29775;DHT22;16676;51.202;6.774;2023-04-03T16:24:29;19.10;63.00
29775;DHT22;16676;51.202;6.774;2023-04-03T16:28:31;19.10;63.10
29775;DHT22;16676;51.202;6.774;2023-04-03T16:32:35;19.10;63.10
29775;DHT22;16676;51.202;6.774;2023-04-03T16:36:37;19.00;63.10
29775;DHT22;16676;51.202;6.774;2023-04-03T16:40:39;19.00;63.30
29775;DHT22;16676;51.202;6.774;2023-04-03T16:44:41;19.00;63.20
29775;DHT22;16676;51.202;6.774;2023-04-03T16:48:44;19.00;63.30
29775;DHT22;16676;51.202;6.774;2023-04-03T16:52:46;19.00;63.40
29775;DHT22;16676;51.202;6.774;2023-04-03T16:56:48;18.90;63.30
29775;DHT22;16676;51.202;6.774;2023-04-03T17:00:50;18.90;63.40
29775;DHT22;16676;51.202;6.774;2023-04-03T17:04:55;18.90;63.40
29775;DHT22;16676;51.202;6.774;2023-04-03T17:08:57;18.90;63.50
29775;DHT22;16676;51.202;6.774;2023-04-03T17:12:59;18.90;63.40
29775;DHT22;16676;51.202;6.774;2023-04-03T17:17:02;18.90;63.40
29775;DHT22;16676;51.202;6.774;2023-04-03T17:21:06;18.90;63.40
29775;DHT22;16676;51.202;6.774;2023-04-03T17:25:08;18.90;63.50
29775;DHT22;16676;51.202;6.774;2023-04-03T17:29:10;18.90;63.70
29775;DHT22;16676;51.202;6.774;2023-04-03T17:33:12;18.90;63.80
29775;DHT22;16676;51.202;6.774;2023-04-03T17:37:16;18.90;63.90
29775;DHT22;16676;51.202;6.774;2023-04-03T17:41:18;18.90;64.20
29775;DHT22;16676;51.202;6.774;2023-04-03T17:45:20;18.80;64.30
29775;DHT22;16676;51.202;6.774;2023-04-03T17:49:22;18.80;64.50
29775;DHT22;16676;51.202;6.774;2023-04-03T17:53:26;18.80;64.60
29775;DHT22;16676;51.202;6.774;2023-04-03T17:57:28;18.80;64.80
29775;DHT22;16676;51.202;6.774;2023-04-03T18:01:33;18.80;65.00
29775;DHT22;16676;51.202;6.774;2023-04-03T18:05:36;18.70;65.10
29775;DHT22;16676;51.202;6.774;2023-04-03T18:09:40;18.70;65.30
29775;DHT22;16676;51.202;6.774;2023-04-03T18:13:42;18.70;65.40
29775;DHT22;16676;51.202;6.774;2023-04-03T18:17:45;18.80;66.40
29775;DHT22;16676;51.202;6.774;2023-04-03T18:21:50;18.70;66.50
29775;DHT22;16676;51.202;6.774;2023-04-03T18:25:53;18.70;66.80
29775;DHT22;16676;51.202;6.774;2023-04-03T18:29:59;18.70;67.10
29775;DHT22;16676;51.202;6.774;2023-04-03T18:34:02;18.70;67.50
29775;DHT22;16676;51.202;6.774;2023-04-03T18:38:04;18.70;67.70
29775;DHT22;16676;51.202;6.774;2023-04-03T18:42:09;18.70;68.00
29775;DHT22;16676;51.202;6.774;2023-04-03T18:46:11;18.70;68.20
29775;DHT22;16676;51.202;6.774;2023-04-03T18:50:14;18.60;68.50
29775;DHT22;16676;51.202;6.774;2023-04-03T18:54:16;18.60;68.80
29775;DHT22;16676;51.202;6.774;2023-04-03T18:58:21;18.60;68.80
29775;DHT22;16676;51.202;6.774;2023-04-03T19:02:23;18.60;68.80
29775;DHT22;16676;51.202;6.774;2023-04-03T19:06:27;18.60;68.90
29775;DHT22;16676;51.202;6.774;2023-04-03T19:10:29;18.50;68.80
29775;DHT22;16676;51.202;6.774;2023-04-03T19:14:32;18.50;68.80
29775;DHT22;16676;51.202;6.774;2023-04-03T19:18:34;18.50;68.70
29775;DHT22;16676;51.202;6.774;2023-04-03T19:22:37;18.50;68.70
29775;DHT22;16676;51.202;6.774;2023-04-03T19:26:39;18.50;68.70
29775;DHT22;16676;51.202;6.774;2023-04-03T19:30:42;18.50;68.80
29775;DHT22;16676;51.202;6.774;2023-04-03T19:34:47;18.50;68.70
29775;DHT22;16676;51.202;6.774;2023-04-03T19:38:49;18.40;68.70
29775;DHT22;16676;51.202;6.774;2023-04-03T19:42:51;18.40;68.70
29775;DHT22;16676;51.202;6.774;2023-04-03T19:46:55;18.40;68.60
29775;DHT22;16676;51.202;6.774;2023-04-03T19:50:57;18.40;68.80
29775;DHT22;16676;51.202;6.774;2023-04-03T19:54:58;18.40;67.60
29775;DHT22;16676;51.202;6.774;2023-04-03T19:59:00;18.30;67.30
29775;DHT22;16676;51.202;6.774;2023-04-03T20:03:04;18.40;67.60
29775;DHT22;16676;51.202;6.774;2023-04-03T20:07:05;18.30;67.90
29775;DHT22;16676;51.202;6.774;2023-04-03T20:11:07;18.30;68.30
29775;DHT22;16676;51.202;6.774;2023-04-03T20:15:10;18.30;68.30
29775;DHT22;16676;51.202;6.774;2023-04-03T20:19:14;18.30;68.50
29775;DHT22;16676;51.202;6.774;2023-04-03T20:23:16;18.30;68.70
29775;DHT22;16676;51.202;6.774;2023-04-03T20:27:18;18.20;68.70
29775;DHT22;16676;51.202;6.774;2023-04-03T20:31:20;18.30;69.00
29775;DHT22;16676;51.202;6.774;2023-04-03T20:35:24;18.20;69.00
29775;DHT22;16676;51.202;6.774;2023-04-03T20:39:28;18.20;69.00
29775;DHT22;16676;51.202;6.774;2023-04-03T20:43:30;18.20;69.20
29775;DHT22;16676;51.202;6.774;2023-04-03T20:47:32;18.20;69.20
29775;DHT22;16676;51.202;6.774;2023-04-03T20:51:35;18.20;69.50
29775;DHT22;16676;51.202;6.774;2023-04-03T20:55:37;18.20;69.50
29775;DHT22;16676;51.202;6.774;2023-04-03T20:59:39;18.20;69.50
29775;DHT22;16676;51.202;6.774;2023-04-03T21:03:42;18.20;69.70
29775;DHT22;16676;51.202;6.774;2023-04-03T21:21:17;18.10;70.60
29775;DHT22;16676;51.202;6.774;2023-04-03T21:25:19;18.00;69.90
29775;DHT22;16676;51.202;6.774;2023-04-03T21:29:21;18.00;70.00
29775;DHT22;16676;51.202;6.774;2023-04-03T21:33:23;18.00;70.00
29775;DHT22;16676;51.202;6.774;2023-04-03T21:37:26;18.00;70.10
29775;DHT22;16676;51.202;6.774;2023-04-03T21:41:28;18.00;70.10
29775;DHT22;16676;51.202;6.774;2023-04-03T21:45:30;18.00;70.00
29775;DHT22;16676;51.202;6.774;2023-04-03T21:49:33;18.00;70.10
29775;DHT22;16676;51.202;6.774;2023-04-03T21:53:36;18.00;70.20
29775;DHT22;16676;51.202;6.774;2023-04-03T21:57:39;18.00;70.20
29775;DHT22;16676;51.202;6.774;2023-04-03T22:01:41;18.00;70.30
29775;DHT22;16676;51.202;6.774;2023-04-03T22:05:43;17.90;70.30
29775;DHT22;16676;51.202;6.774;2023-04-03T22:09:47;17.90;70.30
29775;DHT22;16676;51.202;6.774;2023-04-03T22:13:51;17.90;70.40
29775;DHT22;16676;51.202;6.774;2023-04-03T22:17:53;17.90;70.60
29775;DHT22;16676;51.202;6.774;2023-04-03T22:21:55;17.90;70.60
29775;DHT22;16676;51.202;6.774;2023-04-03T22:25:59;17.90;70.70
29775;DHT22;16676;51.202;6.774;2023-04-03T22:30:02;17.90;70.60
29775;DHT22;16676;51.202;6.774;2023-04-03T22:34:04;17.90;70.90
29775;DHT22;16676;51.202;6.774;2023-04-03T22:38:06;17.80;70.80
29775;DHT22;16676;51.202;6.774;2023-04-03T22:42:09;17.80;71.00
29775;DHT22;16676;51.202;6.774;2023-04-03T22:46:11;17.80;70.90
29775;DHT22;16676;51.202;6.774;2023-04-03T22:50:13;17.80;70.90
29775;DHT22;16676;51.202;6.774;2023-04-03T22:54:15;17.80;71.00
29775;DHT22;16676;51.202;6.774;2023-04-03T22:58:18;17.80;71.10
29775;DHT22;16676;51.202;6.774;2023-04-03T23:02:23;17.80;71.20
29775;DHT22;16676;51.202;6.774;2023-04-03T23:06:24;17.70;71.10
29775;DHT22;16676;51.202;6.774;2023-04-03T23:10:27;17.70;71.20
29775;DHT22;16676;51.202;6.774;2023-04-03T23:14:30;17.70;71.20
29775;DHT22;16676;51.202;6.774;2023-04-03T23:18:32;17.70;72.10
29775;DHT22;16676;51.202;6.774;2023-04-03T23:22:34;17.70;71.30
29775;DHT22;16676;51.202;6.774;2023-04-03T23:26:37;17.70;71.40
29775;DHT22;16676;51.202;6.774;2023-04-03T23:30:40;17.60;71.40
29775;DHT22;16676;51.202;6.774;2023-04-03T23:34:42;17.60;71.50
29775;DHT22;16676;51.202;6.774;2023-04-03T23:38:44;17.60;71.60
29775;DHT22;16676;51.202;6.774;2023-04-03T23:42:46;17.60;71.60
29775;DHT22;16676;51.202;6.774;2023-04-03T23:46:49;17.60;71.70
29775;DHT22;16676;51.202;6.774;2023-04-03T23:50:51;17.60;71.60
29775;DHT22;16676;51.202;6.774;2023-04-03T23:54:53;17.60;71.70
29775;DHT22;16676;51.202;6.774;2023-04-03T23:58:55;17.50;71.70
